Time;durP1;ratioP1;P1;durP2;ratioP2;P2;SDS_P1;SDS_P2;PMS_P1;PMS_P2;Temp;Humidity;BMP_temperature;BMP_pressure;BME280_temperature;BME280_humidity;BME280_pressure;Samples;Min_cycle;Max_cycle;Signal;HPM_P1;HPM_P2
2023/05/19 00:00:18;;;;;;;;;;;15.00;62.80;;;;;;5084319;28;20013;-73
2023/05/19 00:02:45;;;;;;;;;;;14.90;62.80;;;;;;5083022;28;19991;-73
2023/05/19 00:05:13;;;;;;;;;;;14.90;62.90;;;;;;5079795;28;20461;-73
2023/05/19 00:07:41;;;;;;;;;;;14.90;63.00;;;;;;5085754;28;20002;-73
2023/05/19 00:10:08;;;;;;;;;;;14.80;63.10;;;;;;5082431;28;19979;-72
2023/05/19 00:12:35;;;;;;;;;;;14.80;63.20;;;;;;5087634;28;19975;-73
2023/05/19 00:15:02;;;;;;;;;;;14.80;63.30;;;;;;5087410;28;19974;-73
2023/05/19 00:17:33;;;;;;;;;;;14.70;63.30;;;;;;5083291;28;19999;-73
2023/05/19 00:20:00;;;;;;;;;;;14.70;63.40;;;;;;5073782;28;19975;-72
2023/05/19 00:22:26;;;;;;;;;;;14.70;63.50;;;;;;5081507;28;19975;-72
2023/05/19 00:24:53;;;;;;;;;;;14.60;63.50;;;;;;5082006;28;20439;-73
2023/05/19 00:27:19;;;;;;;;;;;14.60;63.60;;;;;;5082678;28;19995;-73
2023/05/19 00:29:46;;;;;;;;;;;14.60;63.70;;;;;;5081755;28;19984;-73
2023/05/19 00:32:13;;;;;;;;;;;14.50;63.70;;;;;;5081085;28;19995;-74
2023/05/19 00:34:41;;;;;;;;;;;14.50;63.90;;;;;;5084044;28;19983;-73
2023/05/19 00:37:07;;;;;;;;;;;14.50;63.90;;;;;;5085049;28;20046;-73
2023/05/19 00:39:34;;;;;;;;;;;14.40;64.10;;;;;;5082167;28;19979;-73
2023/05/19 00:42:01;;;;;;;;;;;14.40;64.10;;;;;;5088991;28;19998;-73
2023/05/19 00:44:28;;;;;;;;;;;14.40;64.30;;;;;;5078012;28;20090;-73
2023/05/19 00:46:54;;;;;;;;;;;14.40;64.30;;;;;;5086361;28;20468;-73
2023/05/19 00:49:21;;;;;;;;;;;14.40;64.30;;;;;;5082656;28;19983;-73
2023/05/19 00:51:49;;;;;;;;;;;14.30;64.30;;;;;;5082525;28;19987;-73
2023/05/19 00:54:16;;;;;;;;;;;14.30;64.40;;;;;;5081147;28;19982;-73
2023/05/19 00:56:42;;;;;;;;;;;14.20;64.50;;;;;;5080526;28;19995;-73
2023/05/19 00:59:09;;;;;;;;;;;14.20;64.70;;;;;;5079675;28;19979;-73
2023/05/19 01:01:35;;;;;;;;;;;14.20;64.80;;;;;;5085338;28;19991;-73
2023/05/19 01:04:02;;;;;;;;;;;14.20;64.80;;;;;;5087890;28;20440;-73
2023/05/19 01:06:29;;;;;;;;;;;14.20;64.80;;;;;;5077387;28;19994;-72
2023/05/19 01:08:57;;;;;;;;;;;14.10;64.90;;;;;;5079822;28;20081;-73
2023/05/19 01:11:23;;;;;;;;;;;14.10;65.10;;;;;;5079415;28;19975;-73
2023/05/19 01:13:50;;;;;;;;;;;14.10;65.20;;;;;;5082577;28;19975;-73
2023/05/19 01:16:21;;;;;;;;;;;14.00;65.10;;;;;;5077348;28;19995;-73
2023/05/19 01:18:54;;;;;;;;;;;14.00;65.20;;;;;;5082003;28;21751;-73
2023/05/19 01:21:35;;;;;;;;;;;14.00;65.30;;;;;;5072460;28;20094;-73
2023/05/19 01:24:11;;;;;;;;;;;13.90;65.40;;;;;;5079721;28;19995;-73
2023/05/19 01:26:50;;;;;;;;;;;13.90;65.60;;;;;;5080398;28;19999;-73
2023/05/19 01:29:27;;;;;;;;;;;13.90;65.70;;;;;;5079570;28;19982;-73
2023/05/19 01:31:55;;;;;;;;;;;13.90;65.90;;;;;;5078098;28;20479;-73
2023/05/19 01:34:23;;;;;;;;;;;13.80;65.80;;;;;;5091057;28;19975;-73
2023/05/19 01:36:51;;;;;;;;;;;13.80;65.90;;;;;;5077183;28;20002;-73
2023/05/19 01:39:18;;;;;;;;;;;13.80;66.00;;;;;;5086808;28;19979;-73
2023/05/19 01:41:45;;;;;;;;;;;13.70;66.10;;;;;;5077922;28;19985;-73
2023/05/19 01:44:12;;;;;;;;;;;13.70;66.20;;;;;;5079583;28;20461;-73
2023/05/19 01:46:38;;;;;;;;;;;13.70;66.10;;;;;;5084333;28;20007;-73
2023/05/19 01:49:06;;;;;;;;;;;13.70;66.20;;;;;;5078811;28;19975;-73
2023/05/19 01:51:33;;;;;;;;;;;13.60;66.20;;;;;;5075600;28;19983;-72
2023/05/19 01:54:00;;;;;;;;;;;13.60;66.20;;;;;;5080945;28;20053;-73
2023/05/19 01:56:31;;;;;;;;;;;13.60;66.30;;;;;;5080104;28;19991;-73
2023/05/19 01:59:03;;;;;;;;;;;13.60;66.30;;;;;;5083511;28;19979;-73
2023/05/19 02:01:33;;;;;;;;;;;13.60;66.40;;;;;;5074189;28;20622;-73
2023/05/19 02:04:11;;;;;;;;;;;13.50;66.30;;;;;;5079118;28;19991;-72
2023/05/19 02:06:41;;;;;;;;;;;13.50;66.40;;;;;;5075718;28;19994;-73
2023/05/19 02:09:12;;;;;;;;;;;13.50;66.50;;;;;;5082427;28;19983;-73
2023/05/19 02:11:40;;;;;;;;;;;13.40;66.50;;;;;;5081662;28;19979;-73
2023/05/19 02:14:08;;;;;;;;;;;13.40;66.60;;;;;;5074413;28;19975;-73
2023/05/19 02:16:36;;;;;;;;;;;13.40;66.80;;;;;;5087881;28;20746;-73
2023/05/19 02:19:02;;;;;;;;;;;13.40;66.90;;;;;;5075254;28;20519;-73
2023/05/19 02:21:30;;;;;;;;;;;13.40;67.00;;;;;;5084364;28;19982;-73
2023/05/19 02:23:57;;;;;;;;;;;13.40;67.10;;;;;;5089400;28;19990;-73
2023/05/19 02:26:24;;;;;;;;;;;13.30;67.10;;;;;;5089470;28;20365;-73
2023/05/19 02:28:50;;;;;;;;;;;13.30;67.20;;;;;;5082489;28;19978;-73
2023/05/19 02:31:17;;;;;;;;;;;13.30;67.30;;;;;;5087312;28;20459;-73
2023/05/19 02:33:43;;;;;;;;;;;13.30;67.30;;;;;;5086774;28;19983;-72
2023/05/19 02:36:10;;;;;;;;;;;13.20;67.40;;;;;;5076321;28;19995;-73
2023/05/19 02:38:38;;;;;;;;;;;13.20;67.50;;;;;;5087233;28;19979;-72
2023/05/19 02:41:04;;;;;;;;;;;13.20;67.60;;;;;;5093940;28;19974;-73
2023/05/19 02:43:31;;;;;;;;;;;13.20;68.40;;;;;;5079336;28;20010;-73
2023/05/19 02:45:58;;;;;;;;;;;13.20;67.70;;;;;;5080142;28;20463;-72
2023/05/19 02:48:24;;;;;;;;;;;13.10;67.70;;;;;;5084917;28;19979;-73
2023/05/19 02:50:51;;;;;;;;;;;13.10;67.80;;;;;;5078347;28;19986;-72
2023/05/19 02:53:17;;;;;;;;;;;13.10;67.90;;;;;;5083772;28;20385;-72
2023/05/19 02:55:45;;;;;;;;;;;13.10;68.00;;;;;;5085661;28;19980;-73
2023/05/19 02:58:12;;;;;;;;;;;13.10;68.10;;;;;;5090431;28;19994;-73
2023/05/19 03:00:38;;;;;;;;;;;13.00;68.10;;;;;;5088533;28;19999;-73
2023/05/19 03:03:05;;;;;;;;;;;13.00;68.00;;;;;;5086185;28;19983;-72
2023/05/19 03:05:32;;;;;;;;;;;13.00;68.00;;;;;;5078866;28;20337;-73
2023/05/19 03:07:58;;;;;;;;;;;12.90;68.00;;;;;;5086043;28;19998;-73
2023/05/19 03:10:25;;;;;;;;;;;12.90;68.10;;;;;;5083638;28;19986;-73
2023/05/19 03:12:53;;;;;;;;;;;12.90;68.10;;;;;;5085060;28;19986;-73
2023/05/19 03:15:22;;;;;;;;;;;12.90;68.20;;;;;;5087279;28;19979;-73
2023/05/19 03:17:48;;;;;;;;;;;12.90;68.20;;;;;;5082397;28;20002;-73
2023/05/19 03:20:15;;;;;;;;;;;12.90;68.30;;;;;;5075385;28;20524;-73
2023/05/19 03:22:42;;;;;;;;;;;12.90;68.40;;;;;;5082585;28;19975;-72
2023/05/19 03:25:09;;;;;;;;;;;12.80;68.40;;;;;;5085780;28;20006;-73
2023/05/19 03:27:35;;;;;;;;;;;12.80;68.40;;;;;;5079239;28;19995;-72
2023/05/19 03:30:03;;;;;;;;;;;12.80;68.50;;;;;;5081081;28;19975;-73
2023/05/19 03:32:31;;;;;;;;;;;12.80;68.50;;;;;;5081733;28;20001;-72
2023/05/19 03:34:57;;;;;;;;;;;12.80;68.60;;;;;;5086237;28;19975;-73
2023/05/19 03:37:24;;;;;;;;;;;12.70;68.60;;;;;;5081676;28;19999;-72
2023/05/19 03:39:50;;;;;;;;;;;12.70;68.60;;;;;;5087452;28;19979;-72
2023/05/19 03:42:17;;;;;;;;;;;12.70;69.30;;;;;;5083884;28;20584;-72
2023/05/19 03:44:44;;;;;;;;;;;12.70;68.50;;;;;;5076355;28;19990;-72
2023/05/19 03:47:12;;;;;;;;;;;12.70;68.50;;;;;;5083748;28;20063;-72
2023/05/19 03:49:38;;;;;;;;;;;12.70;68.50;;;;;;5079923;28;20099;-73
2023/05/19 03:52:05;;;;;;;;;;;12.70;68.50;;;;;;5077246;28;20010;-72
2023/05/19 03:54:32;;;;;;;;;;;12.60;68.50;;;;;;5073517;28;20014;-72
2023/05/19 03:56:58;;;;;;;;;;;12.60;68.50;;;;;;5079735;28;19988;-72
2023/05/19 03:59:25;;;;;;;;;;;12.60;68.50;;;;;;5080353;28;19975;-73
2023/05/19 04:01:52;;;;;;;;;;;12.60;68.50;;;;;;5082478;28;20030;-72
2023/05/19 04:04:20;;;;;;;;;;;12.60;68.60;;;;;;5089920;28;20102;-72
2023/05/19 04:06:47;;;;;;;;;;;12.60;68.60;;;;;;5081491;28;19998;-72
2023/05/19 04:09:14;;;;;;;;;;;12.50;68.60;;;;;;5076822;28;19975;-72
2023/05/19 04:11:41;;;;;;;;;;;12.50;68.60;;;;;;5086506;28;19987;-72
2023/05/19 04:14:08;;;;;;;;;;;12.50;68.70;;;;;;5077665;28;19983;-72
2023/05/19 04:16:35;;;;;;;;;;;12.60;68.80;;;;;;5079178;28;20044;-73
2023/05/19 04:19:01;;;;;;;;;;;12.50;68.80;;;;;;5080279;28;20546;-72
2023/05/19 04:21:29;;;;;;;;;;;12.50;68.80;;;;;;5072724;28;20797;-72
2023/05/19 04:23:57;;;;;;;;;;;12.50;68.90;;;;;;5086669;28;20002;-72
2023/05/19 04:26:25;;;;;;;;;;;12.50;69.00;;;;;;5080541;28;20808;-73
2023/05/19 04:28:52;;;;;;;;;;;12.50;69.00;;;;;;5077913;28;20052;-72
2023/05/19 04:31:20;;;;;;;;;;;12.50;69.90;;;;;;5075541;28;19990;-73
2023/05/19 04:33:48;;;;;;;;;;;12.40;69.10;;;;;;5078696;28;19982;-72
2023/05/19 04:36:17;;;;;;;;;;;12.40;69.90;;;;;;5078753;28;20006;-72
2023/05/19 04:38:45;;;;;;;;;;;12.40;69.20;;;;;;5079731;28;20477;-70
2023/05/19 04:41:12;;;;;;;;;;;12.40;69.30;;;;;;5077377;28;19978;-72
2023/05/19 04:43:40;;;;;;;;;;;12.40;69.40;;;;;;5070781;28;19986;-72
2023/05/19 04:46:08;;;;;;;;;;;12.40;69.40;;;;;;5077555;28;20473;-72
2023/05/19 04:48:35;;;;;;;;;;;12.40;69.40;;;;;;5078142;28;20608;-72
2023/05/19 04:51:01;;;;;;;;;;;12.40;69.50;;;;;;5073275;28;19990;-72
2023/05/19 04:53:28;;;;;;;;;;;12.40;69.60;;;;;;5081082;28;19982;-72
2023/05/19 04:55:56;;;;;;;;;;;12.40;69.60;;;;;;5077894;28;19978;-72
2023/05/19 04:58:24;;;;;;;;;;;12.40;69.70;;;;;;5075645;28;20079;-73
2023/05/19 05:00:51;;;;;;;;;;;12.30;69.80;;;;;;5074471;28;20083;-72
2023/05/19 05:03:17;;;;;;;;;;;12.30;69.80;;;;;;5080493;28;20445;-73
2023/05/19 05:05:44;;;;;;;;;;;12.30;69.80;;;;;;5075361;28;20003;-73
2023/05/19 05:08:11;;;;;;;;;;;12.30;69.90;;;;;;5073793;28;19975;-72
2023/05/19 05:10:37;;;;;;;;;;;12.30;69.90;;;;;;5076221;28;19975;-72
2023/05/19 05:13:05;;;;;;;;;;;12.30;70.00;;;;;;5075117;28;19983;-73
2023/05/19 05:15:32;;;;;;;;;;;12.30;70.00;;;;;;5075307;28;19995;-72
2023/05/19 05:17:59;;;;;;;;;;;12.30;70.00;;;;;;5075687;28;20003;-72
2023/05/19 05:20:26;;;;;;;;;;;12.30;70.00;;;;;;5073607;28;20338;-72
2023/05/19 05:22:53;;;;;;;;;;;12.30;70.00;;;;;;5076632;28;19975;-72
2023/05/19 05:25:20;;;;;;;;;;;12.30;70.00;;;;;;5079785;28;19990;-72
2023/05/19 05:27:46;;;;;;;;;;;12.30;70.00;;;;;;5073453;28;19998;-72
2023/05/19 05:30:14;;;;;;;;;;;12.30;70.10;;;;;;5072276;28;20056;-73
2023/05/19 05:32:41;;;;;;;;;;;12.30;70.10;;;;;;5077585;28;19986;-67
2023/05/19 05:35:08;;;;;;;;;;;12.30;70.20;;;;;;5087456;28;19979;-67
2023/05/19 05:37:34;;;;;;;;;;;12.30;70.10;;;;;;5083589;28;20056;-67
2023/05/19 05:40:01;;;;;;;;;;;12.30;70.20;;;;;;5083062;28;20040;-67
2023/05/19 05:42:27;;;;;;;;;;;12.30;70.10;;;;;;5079463;28;19975;-67
2023/05/19 05:44:54;;;;;;;;;;;12.30;70.20;;;;;;5088845;28;20048;-68
2023/05/19 05:47:22;;;;;;;;;;;12.30;70.20;;;;;;5080076;28;20002;-68
2023/05/19 05:49:49;;;;;;;;;;;12.30;70.20;;;;;;5082612;28;19987;-68
2023/05/19 05:52:17;;;;;;;;;;;12.30;70.10;;;;;;5081051;28;19983;-67
2023/05/19 05:54:45;;;;;;;;;;;12.30;70.10;;;;;;5084027;28;19979;-68
2023/05/19 05:57:11;;;;;;;;;;;12.30;70.20;;;;;;5088316;28;19991;-67
2023/05/19 05:59:39;;;;;;;;;;;12.30;70.20;;;;;;5082137;28;20025;-67
2023/05/19 06:02:07;;;;;;;;;;;12.30;70.10;;;;;;5086743;28;20002;-67
2023/05/19 06:04:35;;;;;;;;;;;12.30;70.20;;;;;;5082689;28;19998;-67
2023/05/19 06:07:01;;;;;;;;;;;12.30;70.20;;;;;;5084577;28;19995;-67
2023/05/19 06:09:29;;;;;;;;;;;12.30;70.20;;;;;;5081368;28;20046;-67
2023/05/19 06:11:57;;;;;;;;;;;12.30;70.20;;;;;;5076504;28;19983;-67
2023/05/19 06:14:23;;;;;;;;;;;12.30;70.30;;;;;;5083364;28;19982;-68
2023/05/19 06:16:50;;;;;;;;;;;12.30;71.00;;;;;;5084014;28;20478;-68
2023/05/19 06:19:18;;;;;;;;;;;12.30;70.30;;;;;;5079774;28;19979;-67
2023/05/19 06:21:46;;;;;;;;;;;12.30;70.30;;;;;;5072155;28;19990;-67
2023/05/19 06:24:12;;;;;;;;;;;12.30;70.40;;;;;;5081648;28;19983;-68
2023/05/19 06:26:39;;;;;;;;;;;12.30;70.40;;;;;;5083309;28;20012;-67
2023/05/19 06:29:06;;;;;;;;;;;12.30;70.50;;;;;;5087446;28;19975;-68
2023/05/19 06:31:33;;;;;;;;;;;12.30;70.40;;;;;;5078548;28;20001;-74
2023/05/19 06:33:59;;;;;;;;;;;12.30;70.50;;;;;;5078364;28;20106;-74
2023/05/19 06:36:26;;;;;;;;;;;12.30;70.40;;;;;;5077787;28;20010;-74
2023/05/19 06:38:54;;;;;;;;;;;12.40;70.50;;;;;;5078493;28;19979;-74
2023/05/19 06:41:20;;;;;;;;;;;12.30;70.50;;;;;;5079960;28;19975;-74
2023/05/19 06:43:47;;;;;;;;;;;12.40;70.50;;;;;;5078425;28;20439;-74
2023/05/19 06:46:16;;;;;;;;;;;12.40;70.50;;;;;;5074767;28;19999;-75
2023/05/19 06:48:42;;;;;;;;;;;12.40;70.50;;;;;;5081743;28;20070;-74
2023/05/19 06:51:09;;;;;;;;;;;12.40;70.40;;;;;;5083327;28;19979;-74
2023/05/19 06:53:36;;;;;;;;;;;12.40;70.30;;;;;;5080362;28;20506;-74
2023/05/19 06:56:04;;;;;;;;;;;12.40;70.20;;;;;;5079971;28;19995;-74
2023/05/19 06:58:31;;;;;;;;;;;12.40;70.20;;;;;;5078590;28;19994;-74
2023/05/19 07:00:57;;;;;;;;;;;12.40;70.20;;;;;;5068409;28;20010;-74
2023/05/19 07:03:24;;;;;;;;;;;12.50;70.30;;;;;;5083686;28;19979;-74
2023/05/19 07:05:51;;;;;;;;;;;12.50;70.20;;;;;;5081530;28;20030;-75
2023/05/19 07:08:17;;;;;;;;;;;12.50;70.10;;;;;;5083599;28;19974;-74
2023/05/19 07:10:44;;;;;;;;;;;12.60;70.10;;;;;;5082697;28;19975;-74
2023/05/19 07:13:12;;;;;;;;;;;12.60;70.00;;;;;;5086593;28;20569;-75
2023/05/19 07:15:38;;;;;;;;;;;12.60;70.20;;;;;;5081116;28;20006;-74
2023/05/19 07:18:05;;;;;;;;;;;12.60;70.20;;;;;;5086506;28;20069;-75
2023/05/19 07:20:31;;;;;;;;;;;12.60;70.10;;;;;;5083697;28;20001;-75
2023/05/19 07:22:58;;;;;;;;;;;12.60;70.00;;;;;;5078317;28;20925;-74
2023/05/19 07:25:27;;;;;;;;;;;12.60;70.00;;;;;;5086408;28;20003;-74
2023/05/19 07:27:53;;;;;;;;;;;12.70;70.10;;;;;;5085630;28;20014;-74
2023/05/19 07:30:21;;;;;;;;;;;12.60;70.00;;;;;;5085499;28;20401;-74
2023/05/19 07:32:48;;;;;;;;;;;12.70;70.20;;;;;;5086123;28;20016;-74
2023/05/19 07:35:14;;;;;;;;;;;12.70;70.20;;;;;;5083197;28;19975;-74
2023/05/19 07:37:41;;;;;;;;;;;12.70;70.30;;;;;;5086085;28;19995;-75
2023/05/19 07:40:08;;;;;;;;;;;12.80;70.40;;;;;;5084414;28;19975;-74
2023/05/19 07:42:35;;;;;;;;;;;12.70;70.20;;;;;;5082065;28;19979;-75
2023/05/19 07:45:02;;;;;;;;;;;12.80;70.10;;;;;;5081638;28;20048;-74
2023/05/19 07:47:30;;;;;;;;;;;12.80;70.20;;;;;;5083636;28;20094;-74
2023/05/19 07:49:57;;;;;;;;;;;12.80;70.40;;;;;;5083517;28;19982;-74
2023/05/19 07:52:24;;;;;;;;;;;12.80;70.20;;;;;;5082934;28;19982;-74
2023/05/19 07:54:50;;;;;;;;;;;12.80;70.20;;;;;;5088700;28;19979;-74
2023/05/19 07:57:17;;;;;;;;;;;12.80;70.20;;;;;;5090795;28;20015;-74
2023/05/19 07:59:44;;;;;;;;;;;12.90;70.20;;;;;;5080393;28;20377;-74
2023/05/19 08:02:10;;;;;;;;;;;12.90;70.20;;;;;;5080315;28;20500;-74
2023/05/19 08:04:38;;;;;;;;;;;13.00;70.10;;;;;;5087562;28;19978;-74
2023/05/19 08:07:05;;;;;;;;;;;13.00;70.00;;;;;;5083892;28;19999;-75
2023/05/19 08:09:31;;;;;;;;;;;13.00;70.00;;;;;;5079346;28;19986;-74
2023/05/19 08:12:00;;;;;;;;;;;13.00;69.90;;;;;;5089632;28;19987;-74
2023/05/19 08:14:26;;;;;;;;;;;13.10;69.80;;;;;;5085595;28;19983;-74
2023/05/19 08:16:53;;;;;;;;;;;13.10;69.70;;;;;;5082290;28;19998;-74
2023/05/19 08:19:19;;;;;;;;;;;13.10;69.70;;;;;;5077612;28;19975;-75
2023/05/19 08:21:48;;;;;;;;;;;13.20;69.80;;;;;;5080124;28;20466;-74
2023/05/19 08:24:15;;;;;;;;;;;13.20;69.50;;;;;;5079796;28;19976;-75
2023/05/19 08:26:41;;;;;;;;;;;13.20;69.40;;;;;;5080849;28;20411;-75
2023/05/19 08:29:08;;;;;;;;;;;13.20;69.30;;;;;;5079946;28;19979;-75
2023/05/19 08:31:34;;;;;;;;;;;13.30;69.30;;;;;;5081577;28;20010;-75
2023/05/19 08:34:01;;;;;;;;;;;13.30;69.10;;;;;;5083151;28;19975;-74
2023/05/19 08:36:28;;;;;;;;;;;13.30;69.00;;;;;;5081747;28;19998;-74
2023/05/19 08:38:56;;;;;;;;;;;13.40;68.80;;;;;;5086401;28;20651;-74
2023/05/19 08:41:23;;;;;;;;;;;13.40;68.70;;;;;;5087914;28;19975;-74
2023/05/19 08:43:49;;;;;;;;;;;13.40;68.70;;;;;;5080993;28;20077;-75
2023/05/19 08:46:16;;;;;;;;;;;13.50;68.50;;;;;;5086234;28;20090;-74
2023/05/19 08:48:44;;;;;;;;;;;13.50;68.40;;;;;;5083310;28;19975;-75
2023/05/19 08:51:13;;;;;;;;;;;13.50;68.30;;;;;;5079093;28;19986;-74
2023/05/19 08:53:42;;;;;;;;;;;13.60;68.10;;;;;;5090040;28;19979;-75
2023/05/19 08:56:12;;;;;;;;;;;13.60;67.90;;;;;;5087565;28;19991;-74
2023/05/19 08:58:40;;;;;;;;;;;13.60;67.60;;;;;;5091994;28;20001;-74
2023/05/19 09:01:07;;;;;;;;;;;13.70;67.50;;;;;;5083686;28;20042;-74
2023/05/19 09:03:37;;;;;;;;;;;13.70;67.50;;;;;;5091136;28;19975;-75
2023/05/19 09:06:05;;;;;;;;;;;13.80;67.30;;;;;;5083646;28;20081;-75
2023/05/19 09:08:31;;;;;;;;;;;13.80;67.00;;;;;;5082752;28;20395;-74
2023/05/19 09:10:58;;;;;;;;;;;13.90;66.70;;;;;;5078514;28;20752;-74
2023/05/19 09:13:26;;;;;;;;;;;14.00;66.50;;;;;;5085318;28;19977;-75
2023/05/19 09:15:52;;;;;;;;;;;14.00;66.10;;;;;;5086032;28;20061;-74
2023/05/19 09:18:19;;;;;;;;;;;14.00;65.80;;;;;;5084605;28;19994;-74
2023/05/19 09:20:46;;;;;;;;;;;14.10;66.00;;;;;;5078360;28;20022;-75
2023/05/19 09:23:13;;;;;;;;;;;14.20;65.60;;;;;;5078758;28;19978;-75
2023/05/19 09:25:46;;;;;;;;;;;14.20;65.40;;;;;;5083796;28;20788;-75
2023/05/19 09:28:12;;;;;;;;;;;14.20;65.30;;;;;;5083437;28;19975;-75
2023/05/19 09:30:40;;;;;;;;;;;14.30;65.30;;;;;;5081664;28;20400;-75
2023/05/19 09:33:08;;;;;;;;;;;14.40;64.70;;;;;;5085640;28;20441;-75
2023/05/19 09:35:35;;;;;;;;;;;14.40;64.20;;;;;;5077341;28;20063;-74
2023/05/19 09:38:02;;;;;;;;;;;14.40;64.00;;;;;;5078113;28;20123;-75
2023/05/19 09:40:28;;;;;;;;;;;14.50;63.80;;;;;;5081600;28;20293;-75
2023/05/19 09:42:55;;;;;;;;;;;14.60;63.60;;;;;;5070518;28;19982;-73
2023/05/19 09:45:21;;;;;;;;;;;14.60;63.30;;;;;;5085695;28;19974;-75
2023/05/19 09:47:50;;;;;;;;;;;14.70;63.00;;;;;;5074448;28;20003;-75
2023/05/19 09:50:16;;;;;;;;;;;14.70;63.40;;;;;;5083067;28;20004;-74
2023/05/19 09:52:43;;;;;;;;;;;14.70;62.40;;;;;;5088349;28;19979;-74
2023/05/19 09:55:11;;;;;;;;;;;14.80;62.20;;;;;;5088310;28;20448;-74
2023/05/19 09:57:38;;;;;;;;;;;14.90;61.90;;;;;;5074926;28;20002;-75
2023/05/19 10:00:14;;;;;;;;;;;14.90;61.90;;;;;;5081423;28;19979;-75
2023/05/19 10:02:41;;;;;;;;;;;15.00;61.80;;;;;;5087663;28;19994;-75
2023/05/19 10:05:10;;;;;;;;;;;15.00;61.80;;;;;;5084478;28;20756;-75
2023/05/19 10:07:37;;;;;;;;;;;15.10;61.60;;;;;;5081259;28;20072;-75
2023/05/19 10:10:04;;;;;;;;;;;15.20;61.60;;;;;;5083465;28;20071;-75
2023/05/19 10:12:32;;;;;;;;;;;15.20;61.50;;;;;;5081481;28;19986;-75
2023/05/19 10:14:59;;;;;;;;;;;15.30;61.60;;;;;;5080749;28;19982;-75
2023/05/19 10:17:25;;;;;;;;;;;15.30;61.60;;;;;;5073619;28;20032;-74
2023/05/19 10:19:53;;;;;;;;;;;15.40;61.70;;;;;;5078760;28;20710;-74
2023/05/19 10:22:21;;;;;;;;;;;15.40;61.80;;;;;;5079328;28;19974;-75
2023/05/19 10:24:48;;;;;;;;;;;15.50;61.70;;;;;;5078690;28;20086;-75
2023/05/19 10:27:15;;;;;;;;;;;15.60;61.60;;;;;;5080093;28;20002;-75
2023/05/19 10:29:44;;;;;;;;;;;15.60;61.70;;;;;;5076656;28;19983;-74
2023/05/19 10:32:11;;;;;;;;;;;15.60;61.60;;;;;;5072136;28;20558;-75
2023/05/19 10:34:56;;;;;;;;;;;15.70;61.60;;;;;;5081123;28;20782;-74
2023/05/19 10:37:28;;;;;;;;;;;15.80;61.60;;;;;;5078546;28;19994;-76
2023/05/19 10:39:55;;;;;;;;;;;15.80;61.60;;;;;;5076365;28;19979;-74
2023/05/19 10:42:29;;;;;;;;;;;15.90;61.60;;;;;;5086845;28;20077;-74
2023/05/19 10:45:02;;;;;;;;;;;16.00;61.40;;;;;;5087581;28;19997;-75
2023/05/19 10:47:29;;;;;;;;;;;16.00;61.00;;;;;;5082495;28;19994;-74
2023/05/19 10:49:56;;;;;;;;;;;16.00;60.70;;;;;;5076570;28;19979;-75
2023/05/19 10:52:25;;;;;;;;;;;16.10;60.80;;;;;;5085438;28;19979;-75
2023/05/19 10:54:53;;;;;;;;;;;16.20;60.80;;;;;;5080410;28;20101;-75
2023/05/19 10:57:20;;;;;;;;;;;16.20;60.80;;;;;;5079263;28;20786;-75
2023/05/19 10:59:48;;;;;;;;;;;16.30;60.90;;;;;;5081911;28;19986;-74
2023/05/19 11:02:30;;;;;;;;;;;16.30;61.10;;;;;;5073872;28;19997;-75
2023/05/19 11:05:06;;;;;;;;;;;16.30;61.10;;;;;;5086736;28;19982;-75
2023/05/19 11:07:34;;;;;;;;;;;16.30;60.80;;;;;;5086869;28;20002;-75
2023/05/19 11:10:05;;;;;;;;;;;16.40;60.70;;;;;;5086029;28;20062;-75
2023/05/19 11:12:39;;;;;;;;;;;16.50;61.00;;;;;;5080599;28;20103;-75
2023/05/19 11:15:07;;;;;;;;;;;16.50;60.90;;;;;;5095558;27;19973;-75
2023/05/19 11:17:34;;;;;;;;;;;16.50;60.70;;;;;;5083522;28;19999;-75
2023/05/19 11:20:01;;;;;;;;;;;16.60;60.70;;;;;;5078573;28;19998;-74
2023/05/19 11:22:28;;;;;;;;;;;16.60;60.70;;;;;;5081474;28;19975;-74
2023/05/19 11:24:56;;;;;;;;;;;16.70;60.70;;;;;;5087995;28;19986;-74
2023/05/19 11:27:26;;;;;;;;;;;16.70;60.60;;;;;;5083309;28;20003;-75
2023/05/19 11:29:54;;;;;;;;;;;16.70;60.20;;;;;;5074465;28;20088;-75
2023/05/19 11:32:21;;;;;;;;;;;16.80;60.10;;;;;;5082037;27;20500;-75
2023/05/19 11:34:48;;;;;;;;;;;16.90;60.00;;;;;;5081406;28;19986;-74
2023/05/19 11:37:15;;;;;;;;;;;16.90;60.00;;;;;;5084441;28;20001;-76
2023/05/19 11:39:42;;;;;;;;;;;17.00;59.90;;;;;;5085172;28;19979;-75
2023/05/19 11:42:10;;;;;;;;;;;17.10;60.50;;;;;;5088013;28;19983;-75
2023/05/19 11:44:37;;;;;;;;;;;17.10;59.70;;;;;;5076172;28;20064;-76
2023/05/19 11:47:04;;;;;;;;;;;17.10;59.70;;;;;;5081112;28;19995;-74
2023/05/19 11:49:30;;;;;;;;;;;17.20;59.70;;;;;;5078714;28;19983;-75
2023/05/19 11:51:57;;;;;;;;;;;17.30;59.50;;;;;;5073072;28;19975;-75
2023/05/19 11:54:29;;;;;;;;;;;17.30;59.40;;;;;;5084317;28;20552;-74
2023/05/19 11:56:55;;;;;;;;;;;17.40;59.40;;;;;;5084734;28;19994;-75
2023/05/19 11:59:31;;;;;;;;;;;17.40;59.50;;;;;;5082955;28;20249;-76
2023/05/19 12:01:58;;;;;;;;;;;17.40;59.80;;;;;;5087151;28;20077;-75
2023/05/19 12:04:24;;;;;;;;;;;17.50;59.70;;;;;;5090884;28;19986;-75
2023/05/19 12:06:52;;;;;;;;;;;17.50;59.60;;;;;;5082583;28;19995;-76
2023/05/19 12:09:18;;;;;;;;;;;17.40;59.40;;;;;;5082150;28;20062;-75
2023/05/19 12:11:45;;;;;;;;;;;17.50;59.50;;;;;;5084750;28;19979;-75
2023/05/19 12:14:12;;;;;;;;;;;17.50;59.80;;;;;;5082777;28;19975;-75
2023/05/19 12:16:40;;;;;;;;;;;17.50;60.10;;;;;;5075819;28;20003;-76
2023/05/19 12:19:08;;;;;;;;;;;17.50;59.80;;;;;;5080210;28;20065;-75
2023/05/19 12:21:35;;;;;;;;;;;17.50;59.70;;;;;;5075494;28;20392;-76
2023/05/19 12:24:01;;;;;;;;;;;17.50;59.80;;;;;;5082569;28;19986;-76
2023/05/19 12:26:28;;;;;;;;;;;17.50;59.80;;;;;;5085883;28;20002;-75
2023/05/19 12:28:54;;;;;;;;;;;17.50;60.20;;;;;;5084234;28;20001;-75
2023/05/19 12:31:22;;;;;;;;;;;17.50;60.80;;;;;;5082907;28;20835;-75
2023/05/19 12:33:50;;;;;;;;;;;17.50;60.70;;;;;;5082710;28;19980;-75
2023/05/19 12:36:17;;;;;;;;;;;17.50;60.80;;;;;;5079233;28;20038;-75
2023/05/19 12:38:44;;;;;;;;;;;17.60;60.90;;;;;;5090184;28;20329;-75
2023/05/19 12:41:11;;;;;;;;;;;17.60;60.90;;;;;;5093422;28;20009;-75
2023/05/19 12:43:38;;;;;;;;;;;17.60;60.60;;;;;;5075314;28;20462;-75
2023/05/19 12:46:11;;;;;;;;;;;17.60;60.20;;;;;;5084121;28;19999;-76
2023/05/19 12:48:40;;;;;;;;;;;17.60;60.40;;;;;;5080098;28;20086;-74
2023/05/19 12:51:08;;;;;;;;;;;17.60;60.10;;;;;;5081503;28;20512;-75
2023/05/19 12:53:36;;;;;;;;;;;17.60;59.90;;;;;;5082590;28;19979;-76
2023/05/19 12:56:09;;;;;;;;;;;17.60;60.20;;;;;;5081403;28;20002;-75
2023/05/19 12:58:37;;;;;;;;;;;17.60;60.10;;;;;;5073631;28;19979;-75
2023/05/19 13:01:04;;;;;;;;;;;17.60;60.70;;;;;;5079476;28;20002;-76
2023/05/19 13:03:30;;;;;;;;;;;17.70;60.30;;;;;;5077365;28;19983;-75
2023/05/19 13:05:58;;;;;;;;;;;17.70;60.20;;;;;;5076057;28;19998;-75
2023/05/19 13:08:26;;;;;;;;;;;17.70;60.80;;;;;;5076182;28;20364;-75
2023/05/19 13:10:53;;;;;;;;;;;17.70;61.00;;;;;;5075634;28;19975;-76
2023/05/19 13:13:20;;;;;;;;;;;17.70;60.30;;;;;;5086579;28;19983;-76
2023/05/19 13:15:48;;;;;;;;;;;17.70;60.30;;;;;;5077466;28;20713;-76
2023/05/19 13:18:14;;;;;;;;;;;17.80;60.20;;;;;;5081592;28;20098;-75
2023/05/19 13:20:41;;;;;;;;;;;17.80;60.20;;;;;;5076390;28;20032;-75
2023/05/19 13:23:09;;;;;;;;;;;17.80;60.30;;;;;;5083160;28;19979;-75
2023/05/19 13:25:37;;;;;;;;;;;17.90;60.80;;;;;;5079113;28;19999;-75
2023/05/19 13:28:04;;;;;;;;;;;17.90;61.00;;;;;;5078461;28;20002;-75
2023/05/19 13:30:31;;;;;;;;;;;17.90;61.20;;;;;;5082170;28;20029;-76
2023/05/19 13:32:58;;;;;;;;;;;17.90;61.30;;;;;;5078957;28;20011;-75
2023/05/19 13:35:24;;;;;;;;;;;18.00;60.50;;;;;;5071894;28;19975;-71
2023/05/19 13:37:51;;;;;;;;;;;18.00;60.90;;;;;;5083006;28;19995;-71
2023/05/19 13:40:18;;;;;;;;;;;17.90;60.80;;;;;;5085277;28;19983;-71
2023/05/19 13:42:46;;;;;;;;;;;18.00;60.70;;;;;;5084711;28;19985;-72
2023/05/19 13:45:14;;;;;;;;;;;18.00;61.50;;;;;;5078569;28;21353;-70
2023/05/19 13:47:40;;;;;;;;;;;18.00;60.90;;;;;;5080009;28;19999;-71
2023/05/19 13:50:07;;;;;;;;;;;18.00;61.30;;;;;;5074139;28;19971;-71
2023/05/19 13:52:34;;;;;;;;;;;18.00;61.10;;;;;;5088619;28;19982;-71
2023/05/19 13:55:01;;;;;;;;;;;18.00;61.10;;;;;;5081966;28;19971;-71
2023/05/19 13:57:27;;;;;;;;;;;18.10;61.20;;;;;;5082086;28;19987;-71
2023/05/19 13:59:55;;;;;;;;;;;18.10;60.70;;;;;;5076569;28;19993;-71
2023/05/19 14:02:22;;;;;;;;;;;18.10;60.50;;;;;;5080543;28;20196;-71
2023/05/19 14:04:49;;;;;;;;;;;18.10;61.10;;;;;;5078677;28;19971;-71
2023/05/19 14:07:16;;;;;;;;;;;18.10;61.70;;;;;;5076267;28;20002;-71
2023/05/19 14:09:42;;;;;;;;;;;18.10;61.00;;;;;;5080103;28;20509;-71
2023/05/19 14:12:10;;;;;;;;;;;18.10;61.10;;;;;;5076906;28;20436;-71
2023/05/19 14:14:37;;;;;;;;;;;18.10;60.50;;;;;;5079798;28;19971;-71
2023/05/19 14:17:05;;;;;;;;;;;18.10;60.60;;;;;;5081197;28;20475;-71